createdAt,value
2019-02-09T00:00:17.923Z,1001.67
2019-02-09T00:01:17.905Z,1001.67
2019-02-09T00:02:17.894Z,1001.68
2019-02-09T00:03:17.888Z,1001.62
2019-02-09T00:04:17.875Z,1001.53
2019-02-09T00:05:17.871Z,1001.53
2019-02-09T00:06:17.851Z,1001.48
2019-02-09T00:07:17.841Z,1001.52
2019-02-09T00:08:17.829Z,1001.49
2019-02-09T00:09:17.826Z,1001.44
2019-02-09T00:10:17.815Z,1001.38
2019-02-09T00:11:17.796Z,1001.41
2019-02-09T00:12:17.786Z,1001.48
2019-02-09T00:13:17.775Z,1001.39
2019-02-09T00:14:17.764Z,1001.37
2019-02-09T00:15:17.762Z,1001.40
2019-02-09T00:16:17.741Z,1001.33
2019-02-09T00:17:17.733Z,1001.37
2019-02-09T00:18:17.721Z,1001.31
2019-02-09T00:19:17.710Z,1001.40
2019-02-09T00:20:17.710Z,1001.32
2019-02-09T00:21:17.687Z,1001.33
2019-02-09T00:22:17.717Z,1001.31
2019-02-09T00:23:17.665Z,1001.28
2019-02-09T00:24:17.654Z,1001.25
2019-02-09T00:25:17.653Z,1001.22
2019-02-09T00:26:17.634Z,1001.22
2019-02-09T00:27:17.624Z,1001.21
2019-02-09T00:28:17.618Z,1001.24
2019-02-09T00:29:17.600Z,1001.22
2019-02-09T00:30:17.598Z,1001.13
2019-02-09T00:31:17.578Z,1001.04
2019-02-09T00:32:17.572Z,1001.07
2019-02-09T00:33:17.562Z,1001.10
2019-02-09T00:34:17.547Z,1001.07
2019-02-09T00:35:17.542Z,1001.01
2019-02-09T00:36:17.526Z,1001.08
2019-02-09T00:37:17.516Z,1001.02
2019-02-09T00:38:17.502Z,1001.03
2019-02-09T00:39:17.499Z,1000.99
2019-02-09T00:40:17.493Z,1001.04
2019-02-09T00:41:17.471Z,1001.06
2019-02-09T00:42:17.460Z,1001.02
2019-02-09T00:43:17.449Z,1001.01
2019-02-09T00:44:17.439Z,1001.07
2019-02-09T00:45:17.436Z,1001.00
2019-02-09T00:46:17.415Z,1000.97
2019-02-09T00:47:17.404Z,1000.99
2019-02-09T00:48:17.395Z,1001.01
2019-02-09T00:49:17.385Z,1000.99
2019-02-09T00:50:17.382Z,1001.02
2019-02-09T00:51:17.364Z,1000.98
2019-02-09T00:52:17.352Z,1000.96
2019-02-09T00:53:17.340Z,1000.91
2019-02-09T00:54:17.377Z,1000.89
2019-02-09T00:55:17.344Z,1000.83
2019-02-09T00:56:17.310Z,1000.83
2019-02-09T00:57:17.296Z,1000.85
2019-02-09T00:58:17.284Z,1000.76
2019-02-09T00:59:17.282Z,1000.75
2019-02-09T01:00:17.265Z,1000.76
2019-02-09T01:01:17.264Z,1000.79
2019-02-09T01:02:17.242Z,1000.72
2019-02-09T01:03:17.287Z,1000.71
2019-02-09T01:04:17.220Z,1000.72
2019-02-09T01:05:17.211Z,1000.66
2019-02-09T01:06:17.208Z,1000.72
2019-02-09T01:07:17.233Z,1000.64
2019-02-09T01:08:17.178Z,1000.65
2019-02-09T01:09:17.165Z,1000.63
2019-02-09T01:10:17.154Z,1000.60
2019-02-09T01:11:17.153Z,1000.69
2019-02-09T01:12:17.133Z,1000.62
2019-02-09T01:13:17.121Z,1000.55
2019-02-09T01:14:17.116Z,1000.55
2019-02-09T01:15:17.101Z,1000.50
2019-02-09T01:16:17.098Z,1000.46
2019-02-09T01:17:17.078Z,1000.48
2019-02-09T01:18:17.067Z,1000.42
2019-02-09T01:19:17.060Z,1000.39
2019-02-09T01:20:17.045Z,1000.54
2019-02-09T01:21:17.044Z,1000.53
2019-02-09T01:22:17.025Z,1000.50
2019-02-09T01:23:17.014Z,1000.47
2019-02-09T01:24:17.006Z,1000.48
2019-02-09T01:25:16.991Z,1000.39
2019-02-09T01:26:16.990Z,1000.41
2019-02-09T01:27:16.971Z,1000.38
2019-02-09T01:28:16.959Z,1000.32
2019-02-09T01:29:16.950Z,1000.36
2019-02-09T01:30:16.935Z,1000.30
2019-02-09T01:31:16.936Z,1000.25
2019-02-09T01:32:16.915Z,1000.22
2019-02-09T01:33:16.903Z,1000.02
2019-02-09T01:34:16.895Z,1000.20
2019-02-09T01:35:16.883Z,1000.15
2019-02-09T01:36:16.885Z,1000.11
2019-02-09T01:37:16.863Z,999.89
2019-02-09T01:38:16.849Z,999.91
2019-02-09T01:39:16.840Z,1000.04
2019-02-09T01:40:16.828Z,999.92
2019-02-09T01:41:16.826Z,999.89
2019-02-09T01:42:16.812Z,999.92
2019-02-09T01:43:16.800Z,999.86
2019-02-09T01:44:16.784Z,999.86
2019-02-09T01:45:16.773Z,999.75
2019-02-09T01:46:16.771Z,999.71
2019-02-09T01:47:16.752Z,999.70
2019-02-09T01:48:16.740Z,999.68
2019-02-09T01:49:16.730Z,999.71
2019-02-09T01:50:16.720Z,999.67
2019-02-09T01:51:16.715Z,999.58
2019-02-09T01:52:16.698Z,999.67
2019-02-09T01:53:16.687Z,999.57
2019-02-09T01:54:16.675Z,999.58
2019-02-09T01:55:16.667Z,999.59
2019-02-09T01:56:16.662Z,999.59
2019-02-09T01:57:16.644Z,999.55
2019-02-09T01:58:16.631Z,999.54
2019-02-09T01:59:16.624Z,999.47
2019-02-09T02:00:16.611Z,999.41
2019-02-09T02:01:16.609Z,999.46
2019-02-09T02:02:16.588Z,999.40
2019-02-09T02:03:16.576Z,999.39
2019-02-09T02:04:16.571Z,999.39
2019-02-09T02:05:16.555Z,999.42
2019-02-09T02:06:16.554Z,999.38
2019-02-09T02:07:16.535Z,999.30
2019-02-09T02:08:16.522Z,999.32
2019-02-09T02:09:16.512Z,999.29
2019-02-09T02:10:16.502Z,999.24
2019-02-09T02:11:16.499Z,999.26
2019-02-09T02:12:16.478Z,999.31
2019-02-09T02:13:16.469Z,999.28
2019-02-09T02:14:16.457Z,999.26
2019-02-09T02:15:16.446Z,999.22
2019-02-09T02:16:16.443Z,999.13
2019-02-09T02:17:16.424Z,999.16
2019-02-09T02:18:16.414Z,999.10
2019-02-09T02:19:16.403Z,999.04
2019-02-09T02:20:16.392Z,999.06
2019-02-09T02:21:16.398Z,999.07
2019-02-09T02:22:16.370Z,999.02
2019-02-09T02:23:16.361Z,998.99
2019-02-09T02:24:16.349Z,999.00
2019-02-09T02:25:16.338Z,998.97
2019-02-09T02:26:16.336Z,998.91
2019-02-09T02:27:16.315Z,998.88
2019-02-09T02:28:16.305Z,998.87
2019-02-09T02:29:16.299Z,998.87
2019-02-09T02:30:22.547Z,998.93
2019-02-09T02:31:17.281Z,998.82
2019-02-09T02:32:16.270Z,998.87
2019-02-09T02:33:16.252Z,998.82
2019-02-09T02:34:16.242Z,998.80
2019-02-09T02:35:16.228Z,998.83
2019-02-09T02:36:16.228Z,998.76
2019-02-09T02:37:16.210Z,998.77
2019-02-09T02:38:16.196Z,998.74
2019-02-09T02:39:16.188Z,998.67
2019-02-09T02:40:16.175Z,998.62
2019-02-09T02:41:16.174Z,998.60
2019-02-09T02:42:16.158Z,998.55
2019-02-09T02:43:16.140Z,998.58
2019-02-09T02:44:16.131Z,998.54
2019-02-09T02:45:16.120Z,998.54
2019-02-09T02:46:16.120Z,998.56
2019-02-09T02:47:16.098Z,998.52
2019-02-09T02:48:16.086Z,998.50
2019-02-09T02:49:16.077Z,998.58
2019-02-09T02:50:16.067Z,998.55
2019-02-09T02:51:16.070Z,998.55
2019-02-09T02:52:16.045Z,998.55
2019-02-09T02:53:16.583Z,998.47
2019-02-09T02:54:16.020Z,998.50
2019-02-09T02:55:16.011Z,998.46
2019-02-09T02:56:16.012Z,998.44
2019-02-09T02:57:15.992Z,998.44
2019-02-09T02:58:15.985Z,998.35
2019-02-09T02:59:15.967Z,998.40
2019-02-09T03:00:15.963Z,998.38
2019-02-09T03:01:15.957Z,998.41
2019-02-09T03:02:15.941Z,998.39
2019-02-09T03:03:15.927Z,998.36
2019-02-09T03:04:15.912Z,998.38
2019-02-09T03:05:15.909Z,998.36
2019-02-09T03:06:15.905Z,998.28
2019-02-09T03:07:15.882Z,998.34
2019-02-09T03:08:15.872Z,998.31
2019-02-09T03:09:15.859Z,998.30
2019-02-09T03:10:15.857Z,998.28
2019-02-09T03:11:15.847Z,998.24
2019-02-09T03:12:15.833Z,998.29
2019-02-09T03:13:15.827Z,998.20
2019-02-09T03:14:15.818Z,998.13
2019-02-09T03:15:15.796Z,998.20
2019-02-09T03:16:15.812Z,998.16
2019-02-09T03:17:15.774Z,998.18
2019-02-09T03:18:15.780Z,998.18
2019-02-09T03:19:15.750Z,998.05
2019-02-09T03:20:15.739Z,998.10
2019-02-09T03:21:15.730Z,997.99
2019-02-09T03:22:15.724Z,997.97
2019-02-09T03:23:15.708Z,997.95
2019-02-09T03:24:15.705Z,998.01
2019-02-09T03:25:15.684Z,997.94
2019-02-09T03:26:15.688Z,997.85
2019-02-09T03:27:15.671Z,997.85
2019-02-09T03:28:15.655Z,997.84
2019-02-09T03:29:15.640Z,997.83
2019-02-09T03:30:15.630Z,997.80
2019-02-09T03:31:15.631Z,997.86
2019-02-09T03:32:15.619Z,997.75
2019-02-09T03:33:15.607Z,997.73
2019-02-09T03:34:15.585Z,997.77
2019-02-09T03:35:15.577Z,997.71
2019-02-09T03:36:15.569Z,997.66
2019-02-09T03:37:15.565Z,997.67
2019-02-09T03:38:15.542Z,997.65
2019-02-09T03:39:15.532Z,997.52
2019-02-09T03:40:15.529Z,997.48
2019-02-09T03:41:15.510Z,997.51
2019-02-09T03:42:15.513Z,997.45
2019-02-09T03:43:15.491Z,997.35
2019-02-09T03:44:15.483Z,997.39
2019-02-09T03:45:15.468Z,997.36
2019-02-09T03:46:15.454Z,997.36
2019-02-09T03:47:15.452Z,997.31
2019-02-09T03:48:15.435Z,997.32
2019-02-09T03:49:15.424Z,997.29
2019-02-09T03:50:15.417Z,997.27
2019-02-09T03:51:15.408Z,997.30
2019-02-09T03:52:15.401Z,997.29
2019-02-09T03:53:15.378Z,997.29
2019-02-09T03:54:15.372Z,997.32
2019-02-09T03:55:15.360Z,997.24
2019-02-09T03:56:15.354Z,997.29
2019-02-09T03:57:15.343Z,997.32
2019-02-09T03:58:15.328Z,997.25
2019-02-09T03:59:15.326Z,997.33
2019-02-09T04:00:15.329Z,997.37
2019-02-09T04:01:15.295Z,997.36
2019-02-09T04:02:15.297Z,997.28
2019-02-09T04:03:15.329Z,997.32
2019-02-09T04:04:15.273Z,997.30
2019-02-09T04:05:15.247Z,997.31
2019-02-09T04:06:15.238Z,997.38
2019-02-09T04:07:15.238Z,997.39
2019-02-09T04:08:15.215Z,997.36
2019-02-09T04:09:15.207Z,997.35
2019-02-09T04:10:15.196Z,997.35
2019-02-09T04:11:15.187Z,997.24
2019-02-09T04:12:15.179Z,997.27
2019-02-09T04:13:15.166Z,997.24
2019-02-09T04:14:15.150Z,997.30
2019-02-09T04:15:15.171Z,997.28
2019-02-09T04:16:15.128Z,997.30
2019-02-09T04:17:15.128Z,997.28
2019-02-09T04:18:15.106Z,997.30
2019-02-09T04:19:15.117Z,997.31
2019-02-09T04:20:15.093Z,997.33
2019-02-09T04:21:15.076Z,997.32
2019-02-09T04:22:15.072Z,997.27
2019-02-09T04:23:15.066Z,997.22
2019-02-09T04:24:15.046Z,997.20
2019-02-09T04:25:15.030Z,997.18
2019-02-09T04:26:15.020Z,997.09
2019-02-09T04:27:15.016Z,997.06
2019-02-09T04:28:14.998Z,997.10
2019-02-09T04:29:14.986Z,997.13
2019-02-09T04:30:14.979Z,997.14
2019-02-09T04:31:14.964Z,997.06
2019-02-09T04:32:15.019Z,997.14
2019-02-09T04:33:14.965Z,997.05
2019-02-09T04:34:14.933Z,997.03
2019-02-09T04:35:14.921Z,997.05
2019-02-09T04:36:14.914Z,997.11
2019-02-09T04:37:14.907Z,997.13
2019-02-09T04:38:14.890Z,997.13
2019-02-09T04:39:14.879Z,997.11
2019-02-09T04:40:14.868Z,997.12
2019-02-09T04:41:14.859Z,996.98
2019-02-09T04:42:14.855Z,997.03
2019-02-09T04:43:14.839Z,996.93
2019-02-09T04:44:14.828Z,996.97
2019-02-09T04:45:14.817Z,997.04
2019-02-09T04:46:14.806Z,997.02
2019-02-09T04:47:14.798Z,996.92
2019-02-09T04:48:14.780Z,996.89
2019-02-09T04:49:14.769Z,996.91
2019-02-09T04:50:14.758Z,996.90
2019-02-09T04:51:14.749Z,996.90
2019-02-09T04:52:14.744Z,996.84
2019-02-09T04:53:14.727Z,996.78
2019-02-09T04:54:14.717Z,996.89
2019-02-09T04:55:14.705Z,996.77
2019-02-09T04:56:14.694Z,996.82
2019-02-09T04:57:14.700Z,996.76
2019-02-09T04:58:14.672Z,996.78
2019-02-09T04:59:14.669Z,996.83
2019-02-09T05:00:14.649Z,996.81
2019-02-09T05:01:14.639Z,996.72
2019-02-09T05:02:14.637Z,996.67
2019-02-09T05:03:14.617Z,996.71
2019-02-09T05:04:14.607Z,996.63
2019-02-09T05:05:14.605Z,996.75
2019-02-09T05:06:14.589Z,996.58
2019-02-09T05:07:14.582Z,996.67
2019-02-09T05:08:14.565Z,996.66
2019-02-09T05:09:14.555Z,996.64
2019-02-09T05:10:14.547Z,996.62
2019-02-09T05:11:14.530Z,996.67
2019-02-09T05:12:14.532Z,996.66
2019-02-09T05:13:14.510Z,996.59
2019-02-09T05:14:14.498Z,996.65
2019-02-09T05:15:14.488Z,996.66
2019-02-09T05:16:14.477Z,996.65
2019-02-09T05:17:14.479Z,996.54
2019-02-09T05:18:14.455Z,996.60
2019-02-09T05:19:14.444Z,996.61
2019-02-09T05:20:14.435Z,996.55
2019-02-09T05:21:14.423Z,996.61
2019-02-09T05:22:14.451Z,996.61
2019-02-09T05:23:14.402Z,996.62
2019-02-09T05:24:14.393Z,996.64
2019-02-09T05:25:14.380Z,996.68
2019-02-09T05:26:14.372Z,996.64
2019-02-09T05:27:14.361Z,996.62
2019-02-09T05:28:14.357Z,996.56
2019-02-09T05:29:14.339Z,996.57
2019-02-09T05:30:14.324Z,996.62
2019-02-09T05:31:22.614Z,996.54
2019-02-09T05:32:15.308Z,996.61
2019-02-09T05:33:14.303Z,996.72
2019-02-09T05:34:14.288Z,996.68
2019-02-09T05:35:14.281Z,996.74
2019-02-09T05:36:14.263Z,996.59
2019-02-09T05:37:14.253Z,996.63
2019-02-09T05:38:14.251Z,996.65
2019-02-09T05:39:14.232Z,996.61
2019-02-09T05:40:14.231Z,996.64
2019-02-09T05:41:14.210Z,996.58
2019-02-09T05:42:14.199Z,996.67
2019-02-09T05:43:14.197Z,996.77
2019-02-09T05:44:14.182Z,996.70
2019-02-09T05:45:14.168Z,996.71
2019-02-09T05:46:14.159Z,996.64
2019-02-09T05:47:14.149Z,996.63
2019-02-09T05:48:14.145Z,996.59
2019-02-09T05:49:14.124Z,996.63
2019-02-09T05:50:14.123Z,996.69
2019-02-09T05:51:14.102Z,996.61
2019-02-09T05:52:14.096Z,996.63
2019-02-09T05:53:14.096Z,996.57
2019-02-09T05:54:14.073Z,996.70
2019-02-09T05:55:14.059Z,996.71
2019-02-09T05:56:14.049Z,996.67
2019-02-09T05:57:14.038Z,996.65
2019-02-09T05:58:14.036Z,996.65
2019-02-09T05:59:14.017Z,996.62
2019-02-09T06:00:14.006Z,996.66
2019-02-09T06:01:13.995Z,996.69
2019-02-09T06:02:13.984Z,996.71
2019-02-09T06:03:13.983Z,996.57
2019-02-09T06:04:13.963Z,996.64
2019-02-09T06:05:13.953Z,996.67
2019-02-09T06:06:13.942Z,996.62
2019-02-09T06:07:13.933Z,996.61
2019-02-09T06:08:13.930Z,996.61
2019-02-09T06:09:13.927Z,996.59
2019-02-09T06:10:13.899Z,996.59
2019-02-09T06:11:13.888Z,996.55
2019-02-09T06:12:13.880Z,996.51
2019-02-09T06:13:13.877Z,996.56
2019-02-09T06:14:13.858Z,996.56
2019-02-09T06:15:13.849Z,996.60
2019-02-09T06:16:13.835Z,996.55
2019-02-09T06:17:13.829Z,996.61
2019-02-09T06:18:13.823Z,996.61
2019-02-09T06:19:13.809Z,996.69
2019-02-09T06:20:13.794Z,996.62
2019-02-09T06:21:13.781Z,996.66
2019-02-09T06:22:13.776Z,996.64
2019-02-09T06:23:13.772Z,996.60
2019-02-09T06:24:13.749Z,996.57
2019-02-09T06:25:13.740Z,996.55
2019-02-09T06:26:13.730Z,996.65
2019-02-09T06:27:13.718Z,996.64
2019-02-09T06:28:13.715Z,996.69
2019-02-09T06:29:13.698Z,996.68
2019-02-09T06:30:13.688Z,996.70
2019-02-09T06:31:13.675Z,996.69
2019-02-09T06:32:13.665Z,996.70
2019-02-09T06:33:13.670Z,996.71
2019-02-09T06:34:13.644Z,996.76
2019-02-09T06:35:13.632Z,996.66
2019-02-09T06:36:13.623Z,996.73
2019-02-09T06:37:13.611Z,996.74
2019-02-09T06:38:13.614Z,996.79
2019-02-09T06:39:13.591Z,996.75
2019-02-09T06:40:13.580Z,996.76
2019-02-09T06:41:13.569Z,996.66
2019-02-09T06:42:13.560Z,996.78
2019-02-09T06:43:13.555Z,996.74
2019-02-09T06:44:13.537Z,996.75
2019-02-09T06:45:13.526Z,996.75
2019-02-09T06:46:13.515Z,996.68
2019-02-09T06:47:13.504Z,996.67
2019-02-09T06:48:13.528Z,996.68
2019-02-09T06:49:13.485Z,996.74
2019-02-09T06:50:13.475Z,996.74
2019-02-09T06:51:13.464Z,996.78
2019-02-09T06:52:13.451Z,996.74
2019-02-09T06:53:13.440Z,996.78
2019-02-09T06:54:13.440Z,996.82
2019-02-09T06:55:13.418Z,996.75
2019-02-09T06:56:13.408Z,996.79
2019-02-09T06:57:13.397Z,996.72
2019-02-09T06:58:13.387Z,996.76
2019-02-09T06:59:13.384Z,996.81
2019-02-09T07:00:13.366Z,996.80
2019-02-09T07:01:13.354Z,996.85
2019-02-09T07:02:13.344Z,996.89
2019-02-09T07:03:13.334Z,996.86
2019-02-09T07:04:13.332Z,996.81
2019-02-09T07:05:13.312Z,996.85
2019-02-09T07:06:13.302Z,996.79
2019-02-09T07:07:13.291Z,996.83
2019-02-09T07:08:13.281Z,996.82
2019-02-09T07:09:13.278Z,996.79
2019-02-09T07:10:13.262Z,996.77
2019-02-09T07:11:13.249Z,996.75
2019-02-09T07:12:13.239Z,996.77
2019-02-09T07:13:13.227Z,996.79
2019-02-09T07:14:13.225Z,996.80
2019-02-09T07:15:13.208Z,996.76
2019-02-09T07:16:13.195Z,996.72
2019-02-09T07:17:13.183Z,996.73
2019-02-09T07:18:13.176Z,996.74
2019-02-09T07:19:13.171Z,996.77
2019-02-09T07:20:13.154Z,996.79
2019-02-09T07:21:13.142Z,996.83
2019-02-09T07:22:13.131Z,996.83
2019-02-09T07:23:13.122Z,996.88
2019-02-09T07:24:13.121Z,996.84
2019-02-09T07:25:13.111Z,996.84
2019-02-09T07:26:13.092Z,996.88
2019-02-09T07:27:13.083Z,996.92
2019-02-09T07:28:13.069Z,996.89
2019-02-09T07:29:13.067Z,996.98
2019-02-09T07:30:13.048Z,997.03
2019-02-09T07:31:13.035Z,997.00
2019-02-09T07:32:13.025Z,997.08
2019-02-09T07:33:13.013Z,997.04
2019-02-09T07:34:13.011Z,997.03
2019-02-09T07:35:12.997Z,997.09
2019-02-09T07:36:12.982Z,997.07
2019-02-09T07:37:12.973Z,997.06
2019-02-09T07:38:12.961Z,997.03
2019-02-09T07:39:12.958Z,997.05
2019-02-09T07:40:12.941Z,997.02
2019-02-09T07:41:12.928Z,997.09
2019-02-09T07:42:12.918Z,997.04
2019-02-09T07:43:12.910Z,997.01
2019-02-09T07:44:12.904Z,997.01
2019-02-09T07:45:12.886Z,996.95
2019-02-09T07:46:12.876Z,996.97
2019-02-09T07:47:12.865Z,996.97
2019-02-09T07:48:12.857Z,996.99
2019-02-09T07:49:12.852Z,996.97
2019-02-09T07:50:12.832Z,997.03
2019-02-09T07:51:12.822Z,996.96
2019-02-09T07:52:12.811Z,996.97
2019-02-09T07:53:12.800Z,996.97
2019-02-09T07:54:12.798Z,997.01
2019-02-09T07:55:12.780Z,997.05
2019-02-09T07:56:12.768Z,996.99
2019-02-09T07:57:12.760Z,997.05
2019-02-09T07:58:12.747Z,997.04
2019-02-09T07:59:12.745Z,997.01
2019-02-09T08:00:12.731Z,996.97
2019-02-09T08:01:12.714Z,997.00
2019-02-09T08:02:12.705Z,997.04
2019-02-09T08:03:12.694Z,997.03
2019-02-09T08:04:12.693Z,997.03
2019-02-09T08:05:12.674Z,997.01
2019-02-09T08:06:12.676Z,997.00
2019-02-09T08:07:12.653Z,997.00
2019-02-09T08:08:12.641Z,997.06
2019-02-09T08:09:12.642Z,997.01
2019-02-09T08:10:12.622Z,997.04
2019-02-09T08:11:12.608Z,996.92
2019-02-09T08:12:12.598Z,997.04
2019-02-09T08:13:12.587Z,997.01
2019-02-09T08:14:12.602Z,997.04
2019-02-09T08:15:12.567Z,997.07
2019-02-09T08:16:12.555Z,997.09
2019-02-09T08:17:12.549Z,997.00
2019-02-09T08:18:12.536Z,997.06
2019-02-09T08:19:12.524Z,997.06
2019-02-09T08:20:12.522Z,997.09
2019-02-09T08:21:12.504Z,997.08
2019-02-09T08:22:12.491Z,997.13
2019-02-09T08:23:12.482Z,997.03
2019-02-09T08:24:12.472Z,997.01
2019-02-09T08:25:12.467Z,997.09
2019-02-09T08:26:12.457Z,997.06
2019-02-09T08:27:12.440Z,997.07
2019-02-09T08:28:12.429Z,997.04
2019-02-09T08:29:12.420Z,997.08
2019-02-09T08:30:12.415Z,997.02
2019-02-09T08:31:12.398Z,997.04
2019-02-09T08:32:13.135Z,997.05
2019-02-09T08:33:12.374Z,997.07
2019-02-09T08:34:12.363Z,997.08
2019-02-09T08:35:12.360Z,997.10
2019-02-09T08:36:12.343Z,997.07
2019-02-09T08:37:12.335Z,997.16
2019-02-09T08:38:12.330Z,997.08
2019-02-09T08:39:12.312Z,997.06
2019-02-09T08:40:12.307Z,997.03
2019-02-09T08:41:12.292Z,997.10
2019-02-09T08:42:12.277Z,997.07
2019-02-09T08:43:12.268Z,997.03
2019-02-09T08:44:12.257Z,996.98
2019-02-09T08:45:12.258Z,997.06
2019-02-09T08:46:12.240Z,997.02
2019-02-09T08:47:12.224Z,997.02
2019-02-09T08:48:12.217Z,997.11
2019-02-09T08:49:12.202Z,996.98
2019-02-09T08:50:12.201Z,997.05
2019-02-09T08:51:12.191Z,996.99
2019-02-09T08:52:12.169Z,997.00
2019-02-09T08:53:12.173Z,997.01
2019-02-09T08:54:12.150Z,997.07
2019-02-09T08:55:12.149Z,997.08
2019-02-09T08:56:12.128Z,997.08
2019-02-09T08:57:12.118Z,997.14
2019-02-09T08:58:12.108Z,997.13
2019-02-09T08:59:12.095Z,997.10
2019-02-09T09:00:12.092Z,997.05
2019-02-09T09:01:12.073Z,997.10
2019-02-09T09:02:12.063Z,997.09
2019-02-09T09:03:12.052Z,997.16
2019-02-09T09:04:12.041Z,997.19
2019-02-09T09:05:12.038Z,997.18
2019-02-09T09:06:12.020Z,997.14
2019-02-09T09:07:12.009Z,997.19
2019-02-09T09:08:11.997Z,997.15
2019-02-09T09:09:11.989Z,997.19
2019-02-09T09:10:11.986Z,997.17
2019-02-09T09:11:11.969Z,997.16
2019-02-09T09:12:11.957Z,997.12
2019-02-09T09:13:11.944Z,997.19
2019-02-09T09:14:11.935Z,997.17
2019-02-09T09:15:11.929Z,997.19
2019-02-09T09:16:11.928Z,997.08
2019-02-09T09:17:11.900Z,997.11
2019-02-09T09:18:11.888Z,997.07
2019-02-09T09:19:11.878Z,997.15
2019-02-09T09:20:11.876Z,997.11
2019-02-09T09:21:11.856Z,997.09
2019-02-09T09:22:11.845Z,997.08
2019-02-09T09:23:11.835Z,997.04
2019-02-09T09:24:11.824Z,997.08
2019-02-09T09:25:11.825Z,997.08
2019-02-09T09:26:11.801Z,997.09
2019-02-09T09:27:11.802Z,997.09
2019-02-09T09:28:11.783Z,997.11
2019-02-09T09:29:11.769Z,997.22
2019-02-09T09:30:11.766Z,997.12
2019-02-09T09:31:11.757Z,997.17
2019-02-09T09:32:11.739Z,997.20
2019-02-09T09:33:11.728Z,997.15
2019-02-09T09:34:11.714Z,997.22
2019-02-09T09:35:11.725Z,997.24
2019-02-09T09:36:11.693Z,997.29
2019-02-09T09:37:11.682Z,997.27
2019-02-09T09:38:11.675Z,997.17
2019-02-09T09:39:11.668Z,997.33
2019-02-09T09:40:11.659Z,997.29
2019-02-09T09:41:11.639Z,997.13
2019-02-09T09:42:11.628Z,997.31
2019-02-09T09:43:11.617Z,997.33
2019-02-09T09:44:11.610Z,997.29
2019-02-09T09:45:11.606Z,997.37
2019-02-09T09:46:11.587Z,997.32
2019-02-09T09:47:11.574Z,997.28
2019-02-09T09:48:11.563Z,997.30
2019-02-09T09:49:11.553Z,997.34
2019-02-09T09:50:11.553Z,997.30
2019-02-09T09:51:11.531Z,997.40
2019-02-09T09:52:11.519Z,997.40
2019-02-09T09:53:11.509Z,997.41
2019-02-09T09:54:11.499Z,997.40
2019-02-09T09:55:11.500Z,997.40
2019-02-09T09:56:11.478Z,997.38
2019-02-09T09:57:11.466Z,997.34
2019-02-09T09:58:11.456Z,997.35
2019-02-09T09:59:11.444Z,997.39
2019-02-09T10:00:11.443Z,997.43
2019-02-09T10:01:11.423Z,997.43
2019-02-09T10:02:11.415Z,997.35
2019-02-09T10:03:11.401Z,997.40
2019-02-09T10:04:11.390Z,997.55
2019-02-09T10:05:11.387Z,997.41
2019-02-09T10:06:11.369Z,997.49
2019-02-09T10:07:11.357Z,997.45
2019-02-09T10:08:11.348Z,997.34
2019-02-09T10:09:11.338Z,997.43
2019-02-09T10:10:11.336Z,997.46
2019-02-09T10:11:11.316Z,997.42
2019-02-09T10:12:11.312Z,997.41
2019-02-09T10:13:11.297Z,997.47
2019-02-09T10:14:11.284Z,997.48
2019-02-09T10:15:11.283Z,997.49
2019-02-09T10:16:11.262Z,997.50
2019-02-09T10:17:11.251Z,997.50
2019-02-09T10:18:11.242Z,997.47
2019-02-09T10:19:11.230Z,997.51
2019-02-09T10:20:11.220Z,997.60
2019-02-09T10:21:11.216Z,997.51
2019-02-09T10:22:11.197Z,997.53
2019-02-09T10:23:11.187Z,997.52
2019-02-09T10:24:11.177Z,997.58
2019-02-09T10:25:11.167Z,997.47
2019-02-09T10:26:11.162Z,997.56
2019-02-09T10:27:11.144Z,997.53
2019-02-09T10:28:11.131Z,997.43
2019-02-09T10:29:11.120Z,997.48
2019-02-09T10:30:11.113Z,997.51
2019-02-09T10:31:11.108Z,997.56
2019-02-09T10:32:11.087Z,997.66
2019-02-09T10:33:11.077Z,997.67
2019-02-09T10:34:11.066Z,997.71
2019-02-09T10:35:11.061Z,997.59
2019-02-09T10:36:11.059Z,997.68
2019-02-09T10:37:11.032Z,997.60
2019-02-09T10:38:11.029Z,997.68
2019-02-09T10:39:11.016Z,997.72
2019-02-09T10:40:10.999Z,997.69
2019-02-09T10:41:10.996Z,997.71
2019-02-09T10:42:10.981Z,997.78
2019-02-09T10:43:10.966Z,997.74
2019-02-09T10:44:10.955Z,997.63
2019-02-09T10:45:10.944Z,997.73
2019-02-09T10:46:10.942Z,997.63
2019-02-09T10:47:10.926Z,997.62
2019-02-09T10:48:10.918Z,997.63
2019-02-09T10:49:10.901Z,997.75
2019-02-09T10:50:10.889Z,997.71
2019-02-09T10:51:10.887Z,997.68
2019-02-09T10:52:10.867Z,997.72
2019-02-09T10:53:10.859Z,997.72
2019-02-09T10:54:10.844Z,997.71
2019-02-09T10:55:10.833Z,997.64
2019-02-09T10:56:10.830Z,997.74
2019-02-09T10:57:10.810Z,997.66
2019-02-09T10:58:10.799Z,997.65
2019-02-09T10:59:10.787Z,997.69
2019-02-09T11:00:10.777Z,997.69
2019-02-09T11:01:10.774Z,997.61
2019-02-09T11:02:10.759Z,997.64
2019-02-09T11:03:10.744Z,997.56
2019-02-09T11:04:10.733Z,997.63
2019-02-09T11:05:10.727Z,997.53
2019-02-09T11:06:10.719Z,997.72
2019-02-09T11:07:10.703Z,997.74
2019-02-09T11:08:10.688Z,997.58
2019-02-09T11:09:10.680Z,997.57
2019-02-09T11:10:10.669Z,997.60
2019-02-09T11:11:10.664Z,997.53
2019-02-09T11:12:10.644Z,997.70
2019-02-09T11:13:10.634Z,997.69
2019-02-09T11:14:10.621Z,997.69
2019-02-09T11:15:10.610Z,997.55
2019-02-09T11:16:10.607Z,997.67
2019-02-09T11:17:10.588Z,997.57
2019-02-09T11:18:10.578Z,997.61
2019-02-09T11:19:10.565Z,997.53
2019-02-09T11:20:10.556Z,997.55
2019-02-09T11:21:10.556Z,997.66
2019-02-09T11:22:10.534Z,997.57
2019-02-09T11:23:10.525Z,997.44
2019-02-09T11:24:10.510Z,997.53
2019-02-09T11:25:10.500Z,997.68
2019-02-09T11:26:10.496Z,997.63
2019-02-09T11:27:10.478Z,997.63
2019-02-09T11:28:10.467Z,997.66
2019-02-09T11:29:10.454Z,997.74
2019-02-09T11:30:10.443Z,997.78
2019-02-09T11:31:10.447Z,997.67
2019-02-09T11:32:10.425Z,997.76
2019-02-09T11:33:10.410Z,997.71
2019-02-09T11:34:10.400Z,997.63
2019-02-09T11:35:10.391Z,997.80
2019-02-09T11:36:10.388Z,997.84
2019-02-09T11:37:10.367Z,997.76
2019-02-09T11:38:10.359Z,997.72
2019-02-09T11:39:10.346Z,997.87
2019-02-09T11:40:10.332Z,997.77
2019-02-09T11:41:11.057Z,997.79
2019-02-09T11:42:10.311Z,997.77
2019-02-09T11:43:10.301Z,997.71
2019-02-09T11:44:10.289Z,997.77
2019-02-09T11:45:10.284Z,997.78
2019-02-09T11:46:10.304Z,997.74
2019-02-09T11:47:10.256Z,997.86
2019-02-09T11:48:10.250Z,997.91
2019-02-09T11:49:10.235Z,997.88
2019-02-09T11:50:10.225Z,997.86
2019-02-09T11:51:10.239Z,997.76
2019-02-09T11:52:10.200Z,997.92
2019-02-09T11:53:10.189Z,997.80
2019-02-09T11:54:10.179Z,997.73
2019-02-09T11:55:10.168Z,997.82
2019-02-09T11:56:10.157Z,997.75
2019-02-09T11:57:10.158Z,997.84
2019-02-09T11:58:10.135Z,997.83
2019-02-09T11:59:10.123Z,998.02
2019-02-09T12:00:10.112Z,997.76
2019-02-09T12:01:10.102Z,997.79
2019-02-09T12:02:10.961Z,997.68
2019-02-09T12:03:14.993Z,997.76
2019-02-09T12:04:11.067Z,997.77
2019-02-09T12:05:10.060Z,997.67
2019-02-09T12:06:10.047Z,997.77
2019-02-09T12:07:10.044Z,997.85
2019-02-09T12:08:10.032Z,997.84
2019-02-09T12:09:10.018Z,997.83
2019-02-09T12:10:10.004Z,997.76
2019-02-09T12:11:09.992Z,997.84
2019-02-09T12:12:09.989Z,997.89
2019-02-09T12:13:09.972Z,997.85
2019-02-09T12:14:09.960Z,997.82
2019-02-09T12:15:09.947Z,997.78
2019-02-09T12:16:09.937Z,997.84
2019-02-09T12:17:09.934Z,997.81
2019-02-09T12:18:09.915Z,997.80
2019-02-09T12:19:09.904Z,997.75
2019-02-09T12:20:09.895Z,997.82
2019-02-09T12:21:09.882Z,997.82
2019-02-09T12:22:09.880Z,997.87
2019-02-09T12:23:09.860Z,997.88
2019-02-09T12:24:09.851Z,997.88
2019-02-09T12:25:09.842Z,997.86